createdAt,value
2024-01-05T00:00:48.040Z,99605.34
2024-01-05T00:03:15.695Z,99601.16
2024-01-05T00:05:43.355Z,99608.63
2024-01-05T00:08:11.475Z,99607.75
2024-01-05T00:10:39.281Z,99611.06
2024-01-05T00:13:07.741Z,99606.94
2024-01-05T00:15:35.606Z,99604.41
2024-01-05T00:18:16.638Z,99617.81
2024-01-05T00:20:44.600Z,99618.69
2024-01-05T00:23:12.184Z,99517.44
2024-01-05T00:25:40.006Z,99619.50
2024-01-05T00:28:07.769Z,99614.47
2024-01-05T00:30:36.687Z,99617.78
2024-01-05T00:33:04.842Z,99621.97
2024-01-05T00:35:32.709Z,99616.94
2024-01-05T00:38:00.636Z,99616.06
2024-01-05T00:40:28.298Z,99599.34
2024-01-05T00:42:55.869Z,99594.34
2024-01-05T00:45:23.341Z,99606.00
2024-01-05T00:47:55.396Z,99629.41
2024-01-05T00:50:23.234Z,99605.22
2024-01-05T00:52:50.904Z,99620.28
2024-01-05T00:55:18.512Z,99625.31
2024-01-05T00:57:46.124Z,99617.81
2024-01-05T01:00:14.786Z,99613.69
2024-01-05T01:02:43.297Z,99617.84
2024-01-05T01:05:10.983Z,99614.47
2024-01-05T01:07:41.104Z,99632.06
2024-01-05T01:10:09.004Z,99572.69
2024-01-05T01:12:36.833Z,99622.03
2024-01-05T01:15:05.566Z,99612.81
2024-01-05T01:17:34.855Z,99622.78
2024-01-05T01:20:02.466Z,99628.66
2024-01-05T01:22:33.552Z,99616.97
2024-01-05T01:25:01.050Z,99631.03
2024-01-05T01:27:29.154Z,99620.28
2024-01-05T01:29:56.613Z,99610.19
2024-01-05T01:32:24.335Z,99615.25
2024-01-05T01:34:51.815Z,99618.59
2024-01-05T01:37:19.520Z,99611.81
2024-01-05T01:39:47.143Z,99620.13
2024-01-05T01:42:14.761Z,99621.81
2024-01-05T01:44:42.803Z,99608.28
2024-01-05T01:47:10.797Z,99631.72
2024-01-05T01:49:38.665Z,99630.09
2024-01-05T01:52:08.340Z,99570.59
2024-01-05T01:54:36.712Z,99599.91
2024-01-05T01:57:06.229Z,99623.28
2024-01-05T01:59:34.457Z,99592.22
2024-01-05T02:02:02.374Z,99624.13
2024-01-05T02:04:31.119Z,99541.22
2024-01-05T02:06:58.836Z,99606.50
2024-01-05T02:09:26.744Z,99614.81
2024-01-05T02:11:54.469Z,99618.94
2024-01-05T02:14:22.145Z,99617.28
2024-01-05T02:17:29.154Z,99607.25
2024-01-05T02:19:57.549Z,99616.38
2024-01-05T02:22:29.720Z,99613.78
2024-01-05T02:25:00.730Z,99611.16
2024-01-05T02:27:28.665Z,99606.16
2024-01-05T02:29:56.422Z,99606.19
2024-01-05T02:32:24.162Z,99605.34
2024-01-05T02:34:51.673Z,99606.81
2024-01-05T02:37:19.407Z,99608.63
2024-01-05T02:39:46.888Z,99613.66
2024-01-05T02:42:14.343Z,99611.91
2024-01-05T02:44:41.864Z,99599.34
2024-01-05T02:47:09.566Z,99607.56
2024-01-05T02:49:37.421Z,99583.19
2024-01-05T02:52:05.767Z,99597.47
2024-01-05T02:54:33.341Z,99624.16
2024-01-05T02:57:01.030Z,99631.66
2024-01-05T02:59:28.704Z,99634.13
2024-01-05T03:01:56.489Z,99629.06
2024-01-05T03:04:24.391Z,99630.75
2024-01-05T03:06:51.900Z,99634.75
2024-01-05T03:09:19.396Z,99617.22
2024-01-05T03:11:48.260Z,99632.13
2024-01-05T03:14:17.039Z,99638.84
2024-01-05T03:16:45.530Z,99640.50
2024-01-05T03:19:13.284Z,99628.56
2024-01-05T03:21:40.917Z,99602.72
2024-01-05T03:24:08.690Z,99605.06
2024-01-05T03:26:36.685Z,99631.94
2024-01-05T03:29:04.182Z,99603.44
2024-01-05T03:31:31.835Z,99650.16
2024-01-05T03:33:59.909Z,99656.72
2024-01-05T03:36:27.454Z,99603.09
2024-01-05T03:38:55.973Z,99666.03
2024-01-05T03:41:23.419Z,99657.72
2024-01-05T03:43:51.010Z,99645.97
2024-01-05T03:46:18.538Z,99651.63
2024-01-05T03:48:46.292Z,99655.78
2024-01-05T03:51:14.072Z,99672.47
2024-01-05T03:53:41.912Z,99659.97
2024-01-05T03:56:12.369Z,99617.34
2024-01-05T03:58:40.057Z,99674.09
2024-01-05T04:01:07.684Z,99665.03
2024-01-05T04:03:35.471Z,99677.50
2024-01-05T04:06:05.130Z,99670.88
2024-01-05T04:08:32.769Z,99674.19
2024-01-05T04:11:00.169Z,99623.03
2024-01-05T04:13:27.671Z,99677.50
2024-01-05T04:15:55.738Z,99672.44
2024-01-05T04:18:23.371Z,99661.59
2024-01-05T04:20:51.039Z,99680.84
2024-01-05T04:23:18.522Z,99683.38
2024-01-05T04:25:46.765Z,99669.31
2024-01-05T04:28:14.994Z,99660.13
2024-01-05T04:30:42.611Z,99691.94
2024-01-05T04:33:10.406Z,99681.19
2024-01-05T04:35:37.989Z,99686.06
2024-01-05T04:38:05.607Z,99682.00
2024-01-05T04:40:33.080Z,99682.63
2024-01-05T04:43:00.673Z,99687.59
2024-01-05T04:45:28.710Z,99659.88
2024-01-05T04:47:57.295Z,99695.09
2024-01-05T04:50:24.941Z,99688.59
2024-01-05T04:52:52.399Z,99686.22
2024-01-05T04:55:20.735Z,99686.88
2024-01-05T04:57:48.376Z,99693.59
2024-01-05T05:00:16.306Z,99695.91
2024-01-05T05:02:44.839Z,99636.63
2024-01-05T05:05:12.869Z,99701.06
2024-01-05T05:07:40.428Z,99682.63
2024-01-05T05:10:09.390Z,99698.59
2024-01-05T05:12:36.897Z,99688.66
2024-01-05T05:15:04.920Z,99681.91
2024-01-05T05:17:38.181Z,99697.84
2024-01-05T05:20:06.508Z,99694.50
2024-01-05T05:22:35.119Z,99684.31
2024-01-05T05:25:04.425Z,99692.81
2024-01-05T05:27:34.012Z,99696.81
2024-01-05T05:30:06.062Z,99660.06
2024-01-05T05:32:34.055Z,99687.66
2024-01-05T05:35:02.038Z,99698.31
2024-01-05T05:37:33.061Z,99684.13
2024-01-05T05:40:00.884Z,99680.72
2024-01-05T05:42:29.431Z,99687.28
2024-01-05T05:44:57.159Z,99696.44
2024-01-05T05:47:24.750Z,99680.34
2024-01-05T05:49:52.287Z,99692.13
2024-01-05T05:52:19.829Z,99701.44
2024-01-05T05:54:47.640Z,99700.66
2024-01-05T05:57:15.245Z,99703.22
2024-01-05T05:59:43.078Z,99698.34
2024-01-05T06:02:10.700Z,99669.63
2024-01-05T06:04:38.583Z,99704.81
2024-01-05T06:07:06.936Z,99706.66
2024-01-05T06:09:34.905Z,99699.84
2024-01-05T06:12:02.575Z,99709.91
2024-01-05T06:14:30.262Z,99713.09
2024-01-05T06:16:58.116Z,99713.31
2024-01-05T06:19:25.725Z,99715.88
2024-01-05T06:21:53.256Z,99715.81
2024-01-05T06:24:20.854Z,99716.66
2024-01-05T06:26:48.432Z,99685.66
2024-01-05T06:29:15.954Z,99716.69
2024-01-05T06:31:43.878Z,99710.91
2024-01-05T06:34:11.789Z,99724.25
2024-01-05T06:36:39.326Z,99716.81
2024-01-05T06:39:07.902Z,99631.19
2024-01-05T06:41:35.414Z,99722.63
2024-01-05T06:44:03.836Z,99729.41
2024-01-05T06:46:31.941Z,99721.75
2024-01-05T06:48:59.908Z,99726.84
2024-01-05T06:51:31.807Z,99740.28
2024-01-05T06:54:00.369Z,99727.06
2024-01-05T06:56:33.145Z,99726.28
2024-01-05T06:59:05.732Z,99722.88
2024-01-05T07:01:33.897Z,99733.75
2024-01-05T07:04:01.662Z,99731.41
2024-01-05T07:06:29.922Z,99718.84
2024-01-05T07:09:05.344Z,99738.13
2024-01-05T07:11:37.709Z,99738.22
2024-01-05T07:14:05.323Z,99731.69
2024-01-05T07:16:33.203Z,99734.97
2024-01-05T07:19:01.263Z,99743.31
2024-01-05T07:21:29.682Z,99729.97
2024-01-05T07:23:58.199Z,99742.56
2024-01-05T07:26:26.130Z,99744.28
2024-01-05T07:28:55.060Z,99741.84
2024-01-05T07:31:23.848Z,99746.13
2024-01-05T07:33:59.701Z,99742.75
2024-01-05T07:36:27.438Z,99746.25
2024-01-05T07:39:00.722Z,99749.72
2024-01-05T07:41:29.408Z,99746.47
2024-01-05T07:43:57.327Z,99747.38
2024-01-05T07:46:28.408Z,99742.44
2024-01-05T07:48:56.933Z,99741.69
2024-01-05T07:51:25.115Z,99710.78
2024-01-05T07:53:53.299Z,99746.00
2024-01-05T07:56:20.852Z,99731.91
2024-01-05T07:58:48.402Z,99739.63
2024-01-05T08:01:18.666Z,99735.59
2024-01-05T08:03:47.279Z,99746.50
2024-01-05T08:06:23.840Z,99747.38
2024-01-05T08:08:52.142Z,99748.28
2024-01-05T08:11:20.554Z,99705.56
2024-01-05T08:13:48.132Z,99747.53
2024-01-05T08:16:17.528Z,99751.78
2024-01-05T08:18:45.309Z,99706.56
2024-01-05T08:21:13.088Z,99752.75
2024-01-05T08:23:40.595Z,99746.06
2024-01-05T08:26:09.321Z,99749.66
2024-01-05T08:28:36.776Z,99752.19
2024-01-05T08:31:04.535Z,99752.88
2024-01-05T08:33:32.296Z,99732.03
2024-01-05T08:35:59.826Z,99710.25
2024-01-05T08:38:27.608Z,99742.94
2024-01-05T08:40:55.193Z,99745.47
2024-01-05T08:43:22.781Z,99752.16
2024-01-05T08:45:50.390Z,99752.91
2024-01-05T08:48:24.381Z,99757.72
2024-01-05T08:50:52.526Z,99764.28
2024-01-05T08:53:21.418Z,99748.34
2024-01-05T08:55:48.955Z,99761.69
2024-01-05T08:58:16.519Z,99746.66
2024-01-05T09:00:44.272Z,99706.50
2024-01-05T09:03:17.304Z,99728.31
2024-01-05T09:05:46.634Z,99751.81
2024-01-05T09:08:15.151Z,99746.84
2024-01-05T09:10:42.613Z,99735.16
2024-01-05T09:13:10.340Z,99729.28
2024-01-05T09:15:38.231Z,99731.78
2024-01-05T09:18:07.059Z,99749.34
2024-01-05T09:20:34.872Z,99743.53
2024-01-05T09:23:02.406Z,99714.19
2024-01-05T09:25:30.900Z,99730.09
2024-01-05T09:28:08.214Z,99738.50
2024-01-05T09:30:36.448Z,99730.97
2024-01-05T09:33:05.358Z,99733.50
2024-01-05T09:35:33.659Z,99645.59
2024-01-05T09:38:21.138Z,99738.56
2024-01-05T09:41:10.855Z,99728.53
2024-01-05T09:44:01.572Z,99710.22
2024-01-05T09:46:51.070Z,99706.03
2024-01-05T09:49:42.149Z,99669.16
2024-01-05T09:52:30.319Z,99725.28
2024-01-05T09:55:18.003Z,99711.91
2024-01-05T09:58:06.768Z,99720.25
2024-01-05T10:00:56.528Z,99725.28
2024-01-05T10:03:47.595Z,99704.34
2024-01-05T10:06:35.478Z,99678.47
2024-01-05T10:09:23.076Z,99716.19
2024-01-05T10:12:14.430Z,99700.25
2024-01-05T10:15:08.022Z,99707.78
2024-01-05T10:17:55.857Z,99710.31
2024-01-05T10:20:44.255Z,99717.03
2024-01-05T10:23:31.936Z,99705.34
2024-01-05T10:26:22.723Z,99713.69
2024-01-05T10:29:16.761Z,99693.63
2024-01-05T10:32:21.082Z,99702.00
2024-01-05T10:35:09.737Z,99718.69
2024-01-05T10:38:08.538Z,99661.84
2024-01-05T10:41:06.811Z,99694.47
2024-01-05T10:43:54.775Z,99716.22
2024-01-05T10:46:43.982Z,99719.56
2024-01-05T10:49:32.358Z,99718.75
2024-01-05T10:52:21.976Z,99729.59
2024-01-05T10:55:10.739Z,99717.91
2024-01-05T10:57:58.395Z,99715.38
2024-01-05T11:00:46.108Z,99737.16
2024-01-05T11:03:40.774Z,99738.00
2024-01-05T11:06:29.582Z,99738.81
2024-01-05T11:09:50.184Z,99745.47
2024-01-05T11:12:43.852Z,99724.56
2024-01-05T11:15:49.536Z,99720.38
2024-01-05T11:19:02.139Z,99733.75
2024-01-05T11:22:00.937Z,99678.53
2024-01-05T11:24:51.012Z,99691.94
2024-01-05T11:27:40.295Z,99705.34
2024-01-05T11:30:42.900Z,99729.63
2024-01-05T11:33:47.758Z,99725.41
2024-01-05T11:36:50.663Z,99732.13
2024-01-05T11:39:47.494Z,99730.44
2024-01-05T11:42:35.609Z,99729.59
2024-01-05T11:45:45.082Z,99727.91
2024-01-05T11:48:36.920Z,99739.63
2024-01-05T11:51:27.175Z,99743.78
2024-01-05T11:54:14.847Z,99737.94
2024-01-05T11:57:05.350Z,99739.63
2024-01-05T11:59:56.192Z,99722.06
2024-01-05T12:02:43.793Z,99718.69
2024-01-05T12:05:32.924Z,99735.44
2024-01-05T12:08:20.690Z,99738.75
2024-01-05T12:11:11.458Z,99742.97
2024-01-05T12:13:59.339Z,99737.13
2024-01-05T12:16:47.256Z,99742.13
2024-01-05T12:19:35.039Z,99739.59
2024-01-05T12:22:22.743Z,99739.59
2024-01-05T12:25:13.536Z,99707.72
2024-01-05T12:28:00.940Z,99735.38
2024-01-05T12:30:51.769Z,99719.50
2024-01-05T12:33:40.946Z,99722.78
2024-01-05T12:36:33.440Z,99740.38
2024-01-05T12:39:24.593Z,99735.34
2024-01-05T12:42:12.159Z,99744.56
2024-01-05T12:44:59.545Z,99734.47
2024-01-05T12:47:47.205Z,99723.53
2024-01-05T12:50:34.928Z,99731.09
2024-01-05T12:53:25.613Z,99744.44
2024-01-05T12:56:19.041Z,99748.66
2024-01-05T12:59:09.378Z,99737.75
2024-01-05T13:02:05.005Z,99740.19
2024-01-05T13:04:55.761Z,99751.97
2024-01-05T13:07:44.060Z,99751.88
2024-01-05T13:10:32.938Z,99764.44
2024-01-05T13:13:20.355Z,99756.03
2024-01-05T13:16:11.026Z,99756.00
2024-01-05T13:18:58.629Z,99750.13
2024-01-05T13:21:46.921Z,99752.56
2024-01-05T13:24:35.114Z,99759.25
2024-01-05T13:27:24.723Z,99713.25
2024-01-05T13:30:17.254Z,99708.19
2024-01-05T13:33:05.403Z,99768.41
2024-01-05T13:35:53.723Z,99739.94
2024-01-05T13:38:41.211Z,99766.75
2024-01-05T13:41:28.796Z,99752.47
2024-01-05T13:44:18.799Z,99770.81
2024-01-05T13:47:07.151Z,99763.25
2024-01-05T13:49:55.223Z,99766.63
2024-01-05T13:52:43.369Z,99771.63
2024-01-05T13:55:32.962Z,99760.75
2024-01-05T13:58:22.145Z,99765.69
2024-01-05T14:01:09.945Z,99771.47
2024-01-05T14:04:00.519Z,99768.09
2024-01-05T14:06:48.132Z,99777.31
2024-01-05T14:09:36.581Z,99774.78
2024-01-05T14:12:24.729Z,99773.09
2024-01-05T14:15:12.378Z,99734.50
2024-01-05T14:17:59.856Z,99770.50
2024-01-05T14:20:47.350Z,99715.94
2024-01-05T14:23:37.579Z,99775.44
2024-01-05T14:26:29.352Z,99682.41
2024-01-05T14:29:18.744Z,99756.19
2024-01-05T14:32:06.537Z,99767.13
2024-01-05T14:34:54.627Z,99757.81
2024-01-05T14:37:42.137Z,99734.31
2024-01-05T14:40:29.696Z,99731.03
2024-01-05T14:43:17.588Z,99772.91
2024-01-05T14:46:07.791Z,99781.16
2024-01-05T14:48:55.517Z,99765.16
2024-01-05T14:51:43.424Z,99781.00
2024-01-05T14:54:32.136Z,99784.31
2024-01-05T14:57:21.418Z,99781.81
2024-01-05T15:00:09.585Z,99785.91
2024-01-05T15:02:58.410Z,99785.84
2024-01-05T15:05:45.991Z,99796.72
2024-01-05T15:08:34.854Z,99768.16
2024-01-05T15:11:22.334Z,99799.19
2024-01-05T15:14:10.684Z,99796.63
2024-01-05T15:16:58.090Z,99793.28
2024-01-05T15:19:45.708Z,99777.41
2024-01-05T15:22:33.985Z,99783.19
2024-01-05T15:25:21.625Z,99802.44
2024-01-05T15:28:14.357Z,99793.19
2024-01-05T15:31:02.155Z,99803.22
2024-01-05T15:33:52.439Z,99805.75
2024-01-05T15:36:41.941Z,99799.97
2024-01-05T15:39:30.836Z,99765.44
2024-01-05T15:42:21.465Z,99806.59
2024-01-05T15:45:15.177Z,99801.47
2024-01-05T15:48:03.019Z,99802.25
2024-01-05T15:50:51.330Z,99757.63
2024-01-05T15:53:39.075Z,99818.78
2024-01-05T15:56:27.172Z,99820.47
2024-01-05T15:59:14.795Z,99818.66
2024-01-05T16:02:03.778Z,99813.72
2024-01-05T16:04:51.722Z,99822.84
2024-01-05T16:07:39.925Z,99822.84
2024-01-05T16:10:28.340Z,99822.78
2024-01-05T16:13:15.693Z,99811.88
2024-01-05T16:16:12.326Z,99821.91
2024-01-05T16:19:02.047Z,99820.97
2024-01-05T16:21:49.572Z,99826.88
2024-01-05T16:24:37.032Z,99764.75
2024-01-05T16:27:24.726Z,99800.66
2024-01-05T16:30:12.424Z,99772.03
2024-01-05T16:32:59.909Z,99794.50
2024-01-05T16:35:47.593Z,99812.22
2024-01-05T16:38:35.787Z,99813.78
2024-01-05T16:41:25.757Z,99810.47
2024-01-05T16:44:13.616Z,99816.16
2024-01-05T16:47:01.279Z,99816.91
2024-01-05T16:49:48.781Z,99814.28
2024-01-05T16:52:36.123Z,99769.72
2024-01-05T16:55:23.613Z,99816.59
2024-01-05T16:58:11.282Z,99806.44
2024-01-05T17:00:59.063Z,99803.72
2024-01-05T17:03:47.681Z,99796.00
2024-01-05T17:06:38.550Z,99810.19
2024-01-05T17:09:26.165Z,99810.97
2024-01-05T17:12:13.459Z,99811.78
2024-01-05T17:15:01.260Z,99809.22
2024-01-05T17:17:48.817Z,99815.84
2024-01-05T17:20:36.588Z,99802.34
2024-01-05T17:23:24.712Z,99812.47
2024-01-05T17:26:12.409Z,99814.13
2024-01-05T17:29:05.091Z,99809.94
2024-01-05T17:31:52.910Z,99815.75
2024-01-05T17:34:41.158Z,99800.50
2024-01-05T17:37:30.711Z,99794.56
2024-01-05T17:40:18.362Z,99815.47
2024-01-05T17:43:07.188Z,99769.25
2024-01-05T17:45:54.641Z,99773.53
2024-01-05T17:48:43.389Z,99810.34
2024-01-05T17:51:39.871Z,99787.56
2024-01-05T17:54:27.851Z,99806.06
2024-01-05T17:57:15.761Z,99800.16
2024-01-05T17:59:43.534Z,99815.22
2024-01-05T18:02:11.107Z,99797.72
2024-01-05T18:04:47.411Z,99821.25
2024-01-05T18:07:18.276Z,99836.34
2024-01-05T18:09:46.354Z,99821.25
2024-01-05T18:12:15.543Z,99715.44
2024-01-05T18:14:43.489Z,99829.53
2024-01-05T18:17:11.394Z,99827.00
2024-01-05T18:19:39.844Z,99804.16
2024-01-05T18:22:07.624Z,99840.19
2024-01-05T18:24:35.508Z,99831.66
2024-01-05T18:27:07.438Z,99835.09
2024-01-05T18:29:36.028Z,99814.03
2024-01-05T18:32:04.677Z,99843.25
2024-01-05T18:34:33.198Z,99832.38
2024-01-05T18:37:01.373Z,99692.75
2024-01-05T18:39:29.767Z,99835.75
2024-01-05T18:42:02.188Z,99857.81
2024-01-05T18:44:30.109Z,99812.53
2024-01-05T18:46:58.537Z,99860.50
2024-01-05T18:49:27.175Z,99793.16
2024-01-05T18:51:57.551Z,99810.75
2024-01-05T18:54:25.594Z,99871.09
2024-01-05T18:56:53.471Z,99835.78
2024-01-05T18:59:20.952Z,99829.16
2024-01-05T19:01:48.927Z,99880.44
2024-01-05T19:04:16.665Z,99748.50
2024-01-05T19:06:45.124Z,99857.56
2024-01-05T19:09:12.894Z,99881.09
2024-01-05T19:11:42.443Z,99895.47
2024-01-05T19:14:10.163Z,99892.78
2024-01-05T19:16:46.375Z,99877.38
2024-01-05T19:19:16.162Z,99883.03
2024-01-05T19:21:55.457Z,99917.97
2024-01-05T19:24:30.853Z,99907.81
2024-01-05T19:26:59.986Z,99845.59
2024-01-05T19:29:28.082Z,99895.03
2024-01-05T19:31:55.850Z,99854.53
2024-01-05T19:34:23.813Z,99912.50
2024-01-05T19:36:52.676Z,99904.13
2024-01-05T19:39:20.666Z,99883.03
2024-01-05T19:41:51.736Z,99880.47
2024-01-05T19:44:21.434Z,99913.16
2024-01-05T19:46:52.976Z,99892.19
2024-01-05T19:49:21.337Z,99914.41
2024-01-05T19:51:49.844Z,99891.09
2024-01-05T19:54:19.821Z,99905.38
2024-01-05T19:56:49.873Z,99861.00
2024-01-05T19:59:20.707Z,99912.38
2024-01-05T20:01:48.859Z,99924.66
2024-01-05T20:04:17.970Z,99928.22
2024-01-05T20:06:51.870Z,99934.88
2024-01-05T20:09:19.817Z,99931.63
2024-01-05T20:11:48.106Z,99927.31
2024-01-05T20:14:17.132Z,99929.78
2024-01-05T20:16:45.570Z,99933.34
2024-01-05T20:19:34.844Z,99948.44
2024-01-05T20:22:03.370Z,99835.75
2024-01-05T20:24:31.159Z,99945.81
2024-01-05T20:26:59.357Z,99845.81
2024-01-05T20:29:27.894Z,99916.53
2024-01-05T20:31:55.973Z,99945.00
2024-01-05T20:34:24.278Z,99909.28
2024-01-05T20:36:54.174Z,99915.19
2024-01-05T20:39:22.326Z,99940.50
2024-01-05T20:41:51.047Z,99949.00
2024-01-05T20:44:20.205Z,99898.69
2024-01-05T20:46:49.166Z,99941.53
2024-01-05T20:49:19.693Z,99948.75
2024-01-05T20:51:47.645Z,99873.28
2024-01-05T20:54:17.988Z,99919.00
2024-01-05T20:56:45.836Z,99928.19
2024-01-05T20:59:13.388Z,99936.34
2024-01-05T21:01:44.320Z,99914.34
2024-01-05T21:04:15.433Z,99911.09
2024-01-05T21:06:47.548Z,99936.28
2024-01-05T21:09:16.172Z,99919.72
2024-01-05T21:11:43.839Z,99942.47
2024-01-05T21:14:12.001Z,99884.41
2024-01-05T21:16:42.791Z,99888.78
2024-01-05T21:19:10.805Z,99933.22
2024-01-05T21:21:44.058Z,99866.13
2024-01-05T21:24:12.121Z,99932.50
2024-01-05T21:26:43.543Z,99901.22
2024-01-05T21:29:11.278Z,99928.81
2024-01-05T21:31:44.457Z,99907.84
2024-01-05T21:34:12.037Z,99921.88
2024-01-05T21:36:41.726Z,99920.81
2024-01-05T21:39:11.442Z,99903.88
2024-01-05T21:41:40.745Z,99914.69
2024-01-05T21:44:08.292Z,99924.22
2024-01-05T21:46:38.861Z,99912.44
2024-01-05T21:49:06.660Z,99904.97
2024-01-05T21:51:34.151Z,99926.06
2024-01-05T21:54:01.603Z,99924.38
2024-01-05T21:56:29.611Z,99924.47
2024-01-05T21:58:57.952Z,99907.41
2024-01-05T22:01:25.560Z,99911.16
2024-01-05T22:03:53.290Z,99850.34
2024-01-05T22:06:21.352Z,99943.38
2024-01-05T22:08:50.504Z,99938.94
2024-01-05T22:11:18.224Z,99931.00
2024-01-05T22:13:45.747Z,99946.03
2024-01-05T22:16:18.221Z,99894.97
2024-01-05T22:18:46.859Z,99932.38
2024-01-05T22:21:15.288Z,99948.34
2024-01-05T22:23:43.394Z,99912.19
2024-01-05T22:26:21.823Z,99948.91
2024-01-05T22:28:50.225Z,99894.50
2024-01-05T22:31:18.310Z,99955.16
2024-01-05T22:33:48.060Z,99936.81
2024-01-05T22:36:16.125Z,99943.75
2024-01-05T22:38:43.854Z,99907.47
2024-01-05T22:41:13.102Z,99941.28
2024-01-05T22:43:41.671Z,99949.56
2024-01-05T22:46:11.404Z,99934.19
2024-01-05T22:48:40.211Z,99937.34
2024-01-05T22:51:09.674Z,99941.91
2024-01-05T22:53:38.465Z,99939.06
2024-01-05T22:56:11.665Z,99906.03
2024-01-05T22:58:39.936Z,99948.28
2024-01-05T23:01:07.753Z,99937.56
2024-01-05T23:03:35.439Z,99921.72
2024-01-05T23:06:03.146Z,99931.09
2024-01-05T23:08:31.267Z,99944.38
2024-01-05T23:10:59.275Z,99908.94
2024-01-05T23:13:26.724Z,99925.06
2024-01-05T23:15:56.651Z,99941.72
2024-01-05T23:18:27.412Z,99939.56
2024-01-05T23:20:55.468Z,99938.88
2024-01-05T23:23:23.025Z,99874.75
2024-01-05T23:25:50.714Z,99924.38
2024-01-05T23:28:18.595Z,99921.63
2024-01-05T23:30:47.906Z,99931.75
2024-01-05T23:33:15.833Z,99940.69
2024-01-05T23:35:43.410Z,99946.25
2024-01-05T23:38:11.106Z,99888.47
2024-01-05T23:40:38.551Z,99948.28
2024-01-05T23:43:05.983Z,99940.03
2024-01-05T23:45:33.992Z,99942.59
2024-01-05T23:48:01.953Z,99940.03
2024-01-05T23:50:29.652Z,99945.06
2024-01-05T23:52:57.330Z,99935.25
2024-01-05T23:55:25.045Z,99961.63
2024-01-05T23:57:52.613Z,99903.03
